sensor_id;sensor_type;location;lat;lon;timestamp;temperature;humidity
54202;DHT22;40108;53.152;5.844;2023-04-27T00:00:37;2.70;86.70
54202;DHT22;40108;53.152;5.844;2023-04-27T00:03:03;2.70;86.80
54202;DHT22;40108;53.152;5.844;2023-04-27T00:05:34;2.80;87.00
54202;DHT22;40108;53.152;5.844;2023-04-27T00:08:00;2.80;87.10
54202;DHT22;40108;53.152;5.844;2023-04-27T00:10:26;2.80;87.20
54202;DHT22;40108;53.152;5.844;2023-04-27T00:12:52;2.90;87.40
54202;DHT22;40108;53.152;5.844;2023-04-27T00:15:17;2.90;87.50
54202;DHT22;40108;53.152;5.844;2023-04-27T00:17:43;2.90;87.50
54202;DHT22;40108;53.152;5.844;2023-04-27T00:20:09;2.90;87.60
54202;DHT22;40108;53.152;5.844;2023-04-27T00:22:37;2.90;87.50
54202;DHT22;40108;53.152;5.844;2023-04-27T00:25:04;2.90;87.50
54202;DHT22;40108;53.152;5.844;2023-04-27T00:27:30;2.90;87.50
54202;DHT22;40108;53.152;5.844;2023-04-27T00:29:55;2.90;87.30
54202;DHT22;40108;53.152;5.844;2023-04-27T00:32:21;2.90;87.20
54202;DHT22;40108;53.152;5.844;2023-04-27T00:34:47;2.80;86.90
54202;DHT22;40108;53.152;5.844;2023-04-27T00:37:12;2.70;86.60
54202;DHT22;40108;53.152;5.844;2023-04-27T00:39:38;2.70;86.80
54202;DHT22;40108;53.152;5.844;2023-04-27T00:42:04;2.60;86.90
54202;DHT22;40108;53.152;5.844;2023-04-27T00:44:30;2.60;86.80
54202;DHT22;40108;53.152;5.844;2023-04-27T00:46:57;2.60;87.10
54202;DHT22;40108;53.152;5.844;2023-04-27T00:49:23;2.60;87.20
54202;DHT22;40108;53.152;5.844;2023-04-27T00:51:50;2.50;87.40
54202;DHT22;40108;53.152;5.844;2023-04-27T00:54:18;2.50;87.60
54202;DHT22;40108;53.152;5.844;2023-04-27T00:56:46;2.50;88.00
54202;DHT22;40108;53.152;5.844;2023-04-27T00:59:12;2.50;88.10
54202;DHT22;40108;53.152;5.844;2023-04-27T01:01:38;2.50;88.20
54202;DHT22;40108;53.152;5.844;2023-04-27T01:04:04;2.40;88.60
54202;DHT22;40108;53.152;5.844;2023-04-27T01:06:29;2.40;88.00
54202;DHT22;40108;53.152;5.844;2023-04-27T01:08:56;2.30;88.00
54202;DHT22;40108;53.152;5.844;2023-04-27T01:11:22;2.30;88.40
54202;DHT22;40108;53.152;5.844;2023-04-27T01:13:47;2.30;88.70
54202;DHT22;40108;53.152;5.844;2023-04-27T01:16:15;2.30;89.10
54202;DHT22;40108;53.152;5.844;2023-04-27T01:18:41;2.30;89.00
54202;DHT22;40108;53.152;5.844;2023-04-27T01:21:07;2.20;89.20
54202;DHT22;40108;53.152;5.844;2023-04-27T01:23:32;2.20;89.20
54202;DHT22;40108;53.152;5.844;2023-04-27T01:25:58;2.20;89.10
54202;DHT22;40108;53.152;5.844;2023-04-27T01:28:24;2.20;89.20
54202;DHT22;40108;53.152;5.844;2023-04-27T01:30:49;2.20;89.10
54202;DHT22;40108;53.152;5.844;2023-04-27T01:33:15;2.20;89.10
54202;DHT22;40108;53.152;5.844;2023-04-27T01:35:41;2.20;89.20
54202;DHT22;40108;53.152;5.844;2023-04-27T01:38:07;2.30;89.30
54202;DHT22;40108;53.152;5.844;2023-04-27T01:40:32;2.30;89.10
54202;DHT22;40108;53.152;5.844;2023-04-27T01:42:58;2.40;89.10
54202;DHT22;40108;53.152;5.844;2023-04-27T01:45:24;2.40;89.10
54202;DHT22;40108;53.152;5.844;2023-04-27T01:47:51;2.40;88.90
54202;DHT22;40108;53.152;5.844;2023-04-27T01:50:17;2.50;89.00
54202;DHT22;40108;53.152;5.844;2023-04-27T01:52:42;2.50;88.80
54202;DHT22;40108;53.152;5.844;2023-04-27T01:55:08;2.50;89.00
54202;DHT22;40108;53.152;5.844;2023-04-27T01:57:34;2.60;89.50
54202;DHT22;40108;53.152;5.844;2023-04-27T02:00:00;2.60;89.30
54202;DHT22;40108;53.152;5.844;2023-04-27T02:02:25;2.60;89.20
54202;DHT22;40108;53.152;5.844;2023-04-27T02:04:51;2.60;89.30
54202;DHT22;40108;53.152;5.844;2023-04-27T02:07:17;2.60;89.20
54202;DHT22;40108;53.152;5.844;2023-04-27T02:09:43;2.70;89.10
54202;DHT22;40108;53.152;5.844;2023-04-27T02:12:08;2.70;89.30
54202;DHT22;40108;53.152;5.844;2023-04-27T02:14:34;2.70;89.20
54202;DHT22;40108;53.152;5.844;2023-04-27T02:17:00;2.80;89.10
54202;DHT22;40108;53.152;5.844;2023-04-27T02:19:25;2.80;89.00
54202;DHT22;40108;53.152;5.844;2023-04-27T02:21:51;2.90;88.90
54202;DHT22;40108;53.152;5.844;2023-04-27T02:24:17;2.90;89.10
54202;DHT22;40108;53.152;5.844;2023-04-27T02:26:43;3.00;89.10
54202;DHT22;40108;53.152;5.844;2023-04-27T02:29:09;3.00;88.90
54202;DHT22;40108;53.152;5.844;2023-04-27T02:31:34;3.00;88.80
54202;DHT22;40108;53.152;5.844;2023-04-27T02:34:00;3.00;88.60
54202;DHT22;40108;53.152;5.844;2023-04-27T02:36:26;3.10;88.50
54202;DHT22;40108;53.152;5.844;2023-04-27T02:38:52;3.10;88.40
54202;DHT22;40108;53.152;5.844;2023-04-27T02:41:18;3.10;88.40
54202;DHT22;40108;53.152;5.844;2023-04-27T02:43:43;3.10;88.30
54202;DHT22;40108;53.152;5.844;2023-04-27T02:46:11;3.20;88.30
54202;DHT22;40108;53.152;5.844;2023-04-27T02:48:36;3.20;88.30
54202;DHT22;40108;53.152;5.844;2023-04-27T02:51:03;3.20;88.40
54202;DHT22;40108;53.152;5.844;2023-04-27T02:53:29;3.30;88.40
54202;DHT22;40108;53.152;5.844;2023-04-27T02:55:54;3.30;88.40
54202;DHT22;40108;53.152;5.844;2023-04-27T02:58:20;3.40;88.30
54202;DHT22;40108;53.152;5.844;2023-04-27T03:00:47;3.40;87.80
54202;DHT22;40108;53.152;5.844;2023-04-27T03:03:17;3.50;87.40
54202;DHT22;40108;53.152;5.844;2023-04-27T03:05:43;3.40;87.10
54202;DHT22;40108;53.152;5.844;2023-04-27T03:08:09;3.40;87.00
54202;DHT22;40108;53.152;5.844;2023-04-27T03:10:34;3.40;87.10
54202;DHT22;40108;53.152;5.844;2023-04-27T03:13:00;3.40;87.20
54202;DHT22;40108;53.152;5.844;2023-04-27T03:15:26;3.40;87.40
54202;DHT22;40108;53.152;5.844;2023-04-27T03:17:51;3.50;87.50
54202;DHT22;40108;53.152;5.844;2023-04-27T03:20:17;3.50;87.80
54202;DHT22;40108;53.152;5.844;2023-04-27T03:22:43;3.50;88.00
54202;DHT22;40108;53.152;5.844;2023-04-27T03:25:10;3.50;88.20
54202;DHT22;40108;53.152;5.844;2023-04-27T03:27:36;3.50;88.30
54202;DHT22;40108;53.152;5.844;2023-04-27T03:30:02;3.40;88.50
54202;DHT22;40108;53.152;5.844;2023-04-27T03:32:29;3.40;88.90
54202;DHT22;40108;53.152;5.844;2023-04-27T03:34:55;3.40;88.70
54202;DHT22;40108;53.152;5.844;2023-04-27T03:37:21;3.30;88.60
54202;DHT22;40108;53.152;5.844;2023-04-27T03:39:46;3.30;88.70
54202;DHT22;40108;53.152;5.844;2023-04-27T03:42:12;3.20;89.00
54202;DHT22;40108;53.152;5.844;2023-04-27T03:44:37;3.20;89.30
54202;DHT22;40108;53.152;5.844;2023-04-27T03:47:03;3.20;89.20
54202;DHT22;40108;53.152;5.844;2023-04-27T03:49:36;3.20;89.30
54202;DHT22;40108;53.152;5.844;2023-04-27T03:52:02;3.10;89.50
54202;DHT22;40108;53.152;5.844;2023-04-27T03:54:30;3.10;89.80
54202;DHT22;40108;53.152;5.844;2023-04-27T03:56:56;3.00;89.80
54202;DHT22;40108;53.152;5.844;2023-04-27T03:59:21;3.00;90.10
54202;DHT22;40108;53.152;5.844;2023-04-27T04:01:47;3.00;90.30
54202;DHT22;40108;53.152;5.844;2023-04-27T04:04:13;2.90;90.50
54202;DHT22;40108;53.152;5.844;2023-04-27T04:06:38;2.80;90.50
54202;DHT22;40108;53.152;5.844;2023-04-27T04:09:04;2.80;90.70
54202;DHT22;40108;53.152;5.844;2023-04-27T04:11:30;2.80;90.90
54202;DHT22;40108;53.152;5.844;2023-04-27T04:13:55;2.70;91.10
54202;DHT22;40108;53.152;5.844;2023-04-27T04:16:21;2.70;91.30
54202;DHT22;40108;53.152;5.844;2023-04-27T04:18:47;2.70;91.50
54202;DHT22;40108;53.152;5.844;2023-04-27T04:21:13;2.70;91.60
54202;DHT22;40108;53.152;5.844;2023-04-27T04:23:38;2.60;91.70
54202;DHT22;40108;53.152;5.844;2023-04-27T04:26:07;2.70;91.90
54202;DHT22;40108;53.152;5.844;2023-04-27T04:28:34;2.60;92.00
54202;DHT22;40108;53.152;5.844;2023-04-27T04:31:00;2.60;92.10
54202;DHT22;40108;53.152;5.844;2023-04-27T04:33:26;2.60;92.20
54202;DHT22;40108;53.152;5.844;2023-04-27T04:35:52;2.60;92.10
54202;DHT22;40108;53.152;5.844;2023-04-27T04:38:18;2.60;92.20
54202;DHT22;40108;53.152;5.844;2023-04-27T04:40:43;2.60;92.20
54202;DHT22;40108;53.152;5.844;2023-04-27T04:43:09;2.60;92.10
54202;DHT22;40108;53.152;5.844;2023-04-27T04:45:35;2.60;92.20
54202;DHT22;40108;53.152;5.844;2023-04-27T04:48:01;2.60;92.20
54202;DHT22;40108;53.152;5.844;2023-04-27T04:50:27;2.60;92.20
54202;DHT22;40108;53.152;5.844;2023-04-27T04:52:53;2.60;92.30
54202;DHT22;40108;53.152;5.844;2023-04-27T04:55:19;2.60;92.30
54202;DHT22;40108;53.152;5.844;2023-04-27T04:57:45;2.60;92.20
54202;DHT22;40108;53.152;5.844;2023-04-27T05:00:11;2.60;92.20
54202;DHT22;40108;53.152;5.844;2023-04-27T05:02:39;2.60;92.10
54202;DHT22;40108;53.152;5.844;2023-04-27T05:05:05;2.50;92.10
54202;DHT22;40108;53.152;5.844;2023-04-27T05:07:32;2.50;92.10
54202;DHT22;40108;53.152;5.844;2023-04-27T05:09:58;2.50;92.10
54202;DHT22;40108;53.152;5.844;2023-04-27T05:12:23;2.60;92.10
54202;DHT22;40108;53.152;5.844;2023-04-27T05:14:52;2.60;92.00
54202;DHT22;40108;53.152;5.844;2023-04-27T05:17:18;2.70;92.10
54202;DHT22;40108;53.152;5.844;2023-04-27T05:19:44;2.70;92.00
54202;DHT22;40108;53.152;5.844;2023-04-27T05:22:10;2.80;92.00
54202;DHT22;40108;53.152;5.844;2023-04-27T05:24:35;2.90;92.00
54202;DHT22;40108;53.152;5.844;2023-04-27T05:27:01;3.00;92.00
54202;DHT22;40108;53.152;5.844;2023-04-27T05:29:27;3.10;92.10
54202;DHT22;40108;53.152;5.844;2023-04-27T05:31:53;3.10;92.10
54202;DHT22;40108;53.152;5.844;2023-04-27T05:34:19;3.20;92.00
54202;DHT22;40108;53.152;5.844;2023-04-27T05:36:45;3.20;92.00
54202;DHT22;40108;53.152;5.844;2023-04-27T05:39:13;3.30;91.80
54202;DHT22;40108;53.152;5.844;2023-04-27T05:41:39;3.40;91.80
54202;DHT22;40108;53.152;5.844;2023-04-27T05:44:05;3.40;91.80
54202;DHT22;40108;53.152;5.844;2023-04-27T05:46:31;3.50;91.70
54202;DHT22;40108;53.152;5.844;2023-04-27T05:48:58;3.60;91.50
54202;DHT22;40108;53.152;5.844;2023-04-27T05:51:23;3.70;91.40
54202;DHT22;40108;53.152;5.844;2023-04-27T05:53:49;3.90;90.90
54202;DHT22;40108;53.152;5.844;2023-04-27T05:56:16;3.90;90.50
54202;DHT22;40108;53.152;5.844;2023-04-27T05:58:41;4.00;90.10
54202;DHT22;40108;53.152;5.844;2023-04-27T06:01:07;4.20;89.70
54202;DHT22;40108;53.152;5.844;2023-04-27T06:03:33;4.20;89.40
54202;DHT22;40108;53.152;5.844;2023-04-27T06:06:00;4.40;89.40
54202;DHT22;40108;53.152;5.844;2023-04-27T06:08:27;4.50;88.70
54202;DHT22;40108;53.152;5.844;2023-04-27T06:10:53;4.60;88.80
54202;DHT22;40108;53.152;5.844;2023-04-27T06:13:19;4.70;88.60
54202;DHT22;40108;53.152;5.844;2023-04-27T06:15:45;4.80;88.40
54202;DHT22;40108;53.152;5.844;2023-04-27T06:18:12;4.90;88.60
54202;DHT22;40108;53.152;5.844;2023-04-27T06:20:37;5.00;88.10
54202;DHT22;40108;53.152;5.844;2023-04-27T06:23:03;5.20;87.90
54202;DHT22;40108;53.152;5.844;2023-04-27T06:25:29;5.20;87.70
54202;DHT22;40108;53.152;5.844;2023-04-27T06:27:56;5.40;87.80
54202;DHT22;40108;53.152;5.844;2023-04-27T06:30:25;5.50;87.30
54202;DHT22;40108;53.152;5.844;2023-04-27T06:32:51;5.60;86.60
54202;DHT22;40108;53.152;5.844;2023-04-27T06:35:17;5.70;86.60
54202;DHT22;40108;53.152;5.844;2023-04-27T06:37:43;6.00;86.00
54202;DHT22;40108;53.152;5.844;2023-04-27T06:40:10;6.10;85.70
54202;DHT22;40108;53.152;5.844;2023-04-27T06:42:36;6.20;85.40
54202;DHT22;40108;53.152;5.844;2023-04-27T06:45:02;6.30;85.50
54202;DHT22;40108;53.152;5.844;2023-04-27T06:47:29;6.50;84.90
54202;DHT22;40108;53.152;5.844;2023-04-27T06:49:55;6.50;83.60
54202;DHT22;40108;53.152;5.844;2023-04-27T06:52:20;6.60;83.00
54202;DHT22;40108;53.152;5.844;2023-04-27T06:54:46;6.70;81.90
54202;DHT22;40108;53.152;5.844;2023-04-27T06:57:12;6.80;80.90
54202;DHT22;40108;53.152;5.844;2023-04-27T06:59:38;7.10;80.30
54202;DHT22;40108;53.152;5.844;2023-04-27T07:02:05;7.50;80.80
54202;DHT22;40108;53.152;5.844;2023-04-27T07:04:31;7.90;79.00
54202;DHT22;40108;53.152;5.844;2023-04-27T07:06:57;8.20;77.30
54202;DHT22;40108;53.152;5.844;2023-04-27T07:09:22;8.40;76.30
54202;DHT22;40108;53.152;5.844;2023-04-27T07:11:48;8.70;75.10
54202;DHT22;40108;53.152;5.844;2023-04-27T07:14:14;8.80;74.10
54202;DHT22;40108;53.152;5.844;2023-04-27T07:16:39;8.90;73.20
54202;DHT22;40108;53.152;5.844;2023-04-27T07:19:05;9.00;71.30
54202;DHT22;40108;53.152;5.844;2023-04-27T07:21:31;9.00;70.30
54202;DHT22;40108;53.152;5.844;2023-04-27T07:23:57;9.00;70.20
54202;DHT22;40108;53.152;5.844;2023-04-27T07:26:23;9.20;70.70
54202;DHT22;40108;53.152;5.844;2023-04-27T07:28:49;9.50;70.50
54202;DHT22;40108;53.152;5.844;2023-04-27T07:31:15;9.60;69.00
54202;DHT22;40108;53.152;5.844;2023-04-27T07:33:41;9.70;69.00
54202;DHT22;40108;53.152;5.844;2023-04-27T07:36:07;9.90;68.80
54202;DHT22;40108;53.152;5.844;2023-04-27T07:38:33;10.10;67.30
54202;DHT22;40108;53.152;5.844;2023-04-27T07:41:01;10.10;64.90
54202;DHT22;40108;53.152;5.844;2023-04-27T07:43:30;10.00;65.00
54202;DHT22;40108;53.152;5.844;2023-04-27T07:45:57;10.10;64.40
54202;DHT22;40108;53.152;5.844;2023-04-27T07:48:23;10.10;66.00
54202;DHT22;40108;53.152;5.844;2023-04-27T07:50:49;10.10;64.80
54202;DHT22;40108;53.152;5.844;2023-04-27T07:53:15;10.40;66.60
54202;DHT22;40108;53.152;5.844;2023-04-27T07:55:41;10.50;66.20
54202;DHT22;40108;53.152;5.844;2023-04-27T07:58:10;10.60;64.60
54202;DHT22;40108;53.152;5.844;2023-04-27T08:00:36;10.60;64.50
54202;DHT22;40108;53.152;5.844;2023-04-27T08:03:02;10.70;63.90
54202;DHT22;40108;53.152;5.844;2023-04-27T08:05:28;10.70;63.90
54202;DHT22;40108;53.152;5.844;2023-04-27T08:07:54;10.70;64.50
54202;DHT22;40108;53.152;5.844;2023-04-27T08:10:20;10.80;63.80
54202;DHT22;40108;53.152;5.844;2023-04-27T08:12:45;11.00;64.00
54202;DHT22;40108;53.152;5.844;2023-04-27T08:15:11;11.10;62.90
54202;DHT22;40108;53.152;5.844;2023-04-27T08:17:37;11.10;61.50
54202;DHT22;40108;53.152;5.844;2023-04-27T08:20:05;11.40;63.40
54202;DHT22;40108;53.152;5.844;2023-04-27T08:22:33;11.70;60.60
54202;DHT22;40108;53.152;5.844;2023-04-27T08:24:58;11.70;58.90
54202;DHT22;40108;53.152;5.844;2023-04-27T08:27:24;11.70;58.30
54202;DHT22;40108;53.152;5.844;2023-04-27T08:29:50;11.70;60.50
54202;DHT22;40108;53.152;5.844;2023-04-27T08:32:16;11.70;58.20
54202;DHT22;40108;53.152;5.844;2023-04-27T08:34:42;11.90;60.30
54202;DHT22;40108;53.152;5.844;2023-04-27T08:37:09;12.20;58.10
54202;DHT22;40108;53.152;5.844;2023-04-27T08:39:35;12.30;56.50
54202;DHT22;40108;53.152;5.844;2023-04-27T08:42:01;12.40;55.70
54202;DHT22;40108;53.152;5.844;2023-04-27T08:44:40;12.60;56.30
54202;DHT22;40108;53.152;5.844;2023-04-27T08:47:06;12.30;55.20
54202;DHT22;40108;53.152;5.844;2023-04-27T08:49:33;12.20;56.70
54202;DHT22;40108;53.152;5.844;2023-04-27T08:52:00;12.20;54.30
54202;DHT22;40108;53.152;5.844;2023-04-27T08:54:26;12.20;54.20
54202;DHT22;40108;53.152;5.844;2023-04-27T08:56:52;12.20;53.90
54202;DHT22;40108;53.152;5.844;2023-04-27T08:59:18;12.20;55.20
54202;DHT22;40108;53.152;5.844;2023-04-27T09:01:45;12.50;56.20
54202;DHT22;40108;53.152;5.844;2023-04-27T09:04:12;12.60;52.90
54202;DHT22;40108;53.152;5.844;2023-04-27T09:06:38;12.40;52.70
54202;DHT22;40108;53.152;5.844;2023-04-27T09:09:04;12.20;51.40
54202;DHT22;40108;53.152;5.844;2023-04-27T09:11:35;12.40;54.00
54202;DHT22;40108;53.152;5.844;2023-04-27T09:14:03;12.40;51.00
54202;DHT22;40108;53.152;5.844;2023-04-27T09:16:39;12.60;52.20
54202;DHT22;40108;53.152;5.844;2023-04-27T09:19:05;12.60;52.90
54202;DHT22;40108;53.152;5.844;2023-04-27T09:21:30;12.80;52.30
54202;DHT22;40108;53.152;5.844;2023-04-27T09:23:57;12.80;51.20
54202;DHT22;40108;53.152;5.844;2023-04-27T09:26:26;12.90;53.00
54202;DHT22;40108;53.152;5.844;2023-04-27T09:28:54;12.90;48.80
54202;DHT22;40108;53.152;5.844;2023-04-27T09:31:32;12.90;50.60
54202;DHT22;40108;53.152;5.844;2023-04-27T09:33:58;13.10;50.60
54202;DHT22;40108;53.152;5.844;2023-04-27T09:36:24;13.20;50.90
54202;DHT22;40108;53.152;5.844;2023-04-27T09:38:51;13.10;50.80
54202;DHT22;40108;53.152;5.844;2023-04-27T09:41:17;12.80;52.20
54202;DHT22;40108;53.152;5.844;2023-04-27T09:43:43;13.10;52.70
54202;DHT22;40108;53.152;5.844;2023-04-27T09:46:13;13.00;50.70
54202;DHT22;40108;53.152;5.844;2023-04-27T09:48:39;13.00;52.20
54202;DHT22;40108;53.152;5.844;2023-04-27T09:51:06;12.90;53.10
54202;DHT22;40108;53.152;5.844;2023-04-27T10:01:38;12.80;51.30
54202;DHT22;40108;53.152;5.844;2023-04-27T10:07:05;13.20;53.90
54202;DHT22;40108;53.152;5.844;2023-04-27T10:09:42;13.20;51.00
54202;DHT22;40108;53.152;5.844;2023-04-27T10:12:26;13.00;54.20
54202;DHT22;40108;53.152;5.844;2023-04-27T10:14:55;13.20;52.40
54202;DHT22;40108;53.152;5.844;2023-04-27T10:17:34;13.10;52.80
54202;DHT22;40108;53.152;5.844;2023-04-27T10:20:05;13.10;50.80
54202;DHT22;40108;53.152;5.844;2023-04-27T10:22:41;13.20;53.40
54202;DHT22;40108;53.152;5.844;2023-04-27T10:25:17;13.50;51.90
54202;DHT22;40108;53.152;5.844;2023-04-27T10:27:57;13.50;52.70
54202;DHT22;40108;53.152;5.844;2023-04-27T10:30:25;13.80;51.50
54202;DHT22;40108;53.152;5.844;2023-04-27T10:32:56;13.90;51.10
54202;DHT22;40108;53.152;5.844;2023-04-27T10:35:32;14.10;50.10
54202;DHT22;40108;53.152;5.844;2023-04-27T10:38:15;13.90;49.60
54202;DHT22;40108;53.152;5.844;2023-04-27T10:40:56;13.40;49.20
54202;DHT22;40108;53.152;5.844;2023-04-27T10:43:26;13.20;52.00
54202;DHT22;40108;53.152;5.844;2023-04-27T10:45:52;13.50;52.00
54202;DHT22;40108;53.152;5.844;2023-04-27T10:48:18;13.70;50.70
54202;DHT22;40108;53.152;5.844;2023-04-27T10:50:44;13.70;47.40
54202;DHT22;40108;53.152;5.844;2023-04-27T10:53:12;13.60;49.30
54202;DHT22;40108;53.152;5.844;2023-04-27T10:55:38;13.80;51.70
54202;DHT22;40108;53.152;5.844;2023-04-27T10:58:04;14.00;47.60
54202;DHT22;40108;53.152;5.844;2023-04-27T11:00:35;13.80;48.20
54202;DHT22;40108;53.152;5.844;2023-04-27T11:03:21;13.70;49.40
54202;DHT22;40108;53.152;5.844;2023-04-27T11:06:02;13.90;50.60
54202;DHT22;40108;53.152;5.844;2023-04-27T11:08:28;13.90;46.80
54202;DHT22;40108;53.152;5.844;2023-04-27T11:10:55;13.90;47.30
54202;DHT22;40108;53.152;5.844;2023-04-27T11:13:24;13.90;48.80
54202;DHT22;40108;53.152;5.844;2023-04-27T11:15:52;14.00;49.20
54202;DHT22;40108;53.152;5.844;2023-04-27T11:18:22;14.00;49.10
54202;DHT22;40108;53.152;5.844;2023-04-27T11:20:51;14.20;51.50
54202;DHT22;40108;53.152;5.844;2023-04-27T11:23:28;14.50;51.60
54202;DHT22;40108;53.152;5.844;2023-04-27T11:25:55;14.60;50.50
54202;DHT22;40108;53.152;5.844;2023-04-27T11:28:22;14.40;47.60
54202;DHT22;40108;53.152;5.844;2023-04-27T11:30:55;14.10;47.30
54202;DHT22;40108;53.152;5.844;2023-04-27T11:33:21;13.90;50.40
54202;DHT22;40108;53.152;5.844;2023-04-27T11:35:47;14.00;50.60
54202;DHT22;40108;53.152;5.844;2023-04-27T11:38:17;14.10;51.30
54202;DHT22;40108;53.152;5.844;2023-04-27T11:40:57;14.20;51.50
54202;DHT22;40108;53.152;5.844;2023-04-27T11:43:27;14.20;50.00
54202;DHT22;40108;53.152;5.844;2023-04-27T11:45:53;14.20;49.70
54202;DHT22;40108;53.152;5.844;2023-04-27T11:48:21;14.10;47.20
54202;DHT22;40108;53.152;5.844;2023-04-27T11:50:48;14.00;48.80
54202;DHT22;40108;53.152;5.844;2023-04-27T11:53:14;14.00;50.40
54202;DHT22;40108;53.152;5.844;2023-04-27T11:55:40;14.10;49.70
54202;DHT22;40108;53.152;5.844;2023-04-27T11:58:16;14.00;47.90
54202;DHT22;40108;53.152;5.844;2023-04-27T12:00:42;13.90;49.60
54202;DHT22;40108;53.152;5.844;2023-04-27T12:03:08;13.80;50.80
54202;DHT22;40108;53.152;5.844;2023-04-27T12:05:34;13.80;51.70
54202;DHT22;40108;53.152;5.844;2023-04-27T12:08:00;13.70;48.20
54202;DHT22;40108;53.152;5.844;2023-04-27T12:10:26;13.70;50.30
54202;DHT22;40108;53.152;5.844;2023-04-27T12:12:52;13.60;49.30
54202;DHT22;40108;53.152;5.844;2023-04-27T12:15:18;13.60;50.60
54202;DHT22;40108;53.152;5.844;2023-04-27T12:17:44;13.60;51.50
54202;DHT22;40108;53.152;5.844;2023-04-27T12:20:10;13.30;50.20
54202;DHT22;40108;53.152;5.844;2023-04-27T12:22:37;13.20;50.70
54202;DHT22;40108;53.152;5.844;2023-04-27T12:25:03;13.20;52.90
54202;DHT22;40108;53.152;5.844;2023-04-27T12:27:29;13.20;53.00
54202;DHT22;40108;53.152;5.844;2023-04-27T12:29:55;13.20;54.20
54202;DHT22;40108;53.152;5.844;2023-04-27T12:32:23;13.20;54.10
54202;DHT22;40108;53.152;5.844;2023-04-27T12:34:49;13.30;53.60
54202;DHT22;40108;53.152;5.844;2023-04-27T12:37:15;13.20;54.50
54202;DHT22;40108;53.152;5.844;2023-04-27T12:39:41;13.10;53.10
54202;DHT22;40108;53.152;5.844;2023-04-27T12:42:06;13.00;53.60
54202;DHT22;40108;53.152;5.844;2023-04-27T12:44:32;13.00;54.50
54202;DHT22;40108;53.152;5.844;2023-04-27T12:46:58;12.90;54.00
54202;DHT22;40108;53.152;5.844;2023-04-27T12:49:23;12.90;54.90
54202;DHT22;40108;53.152;5.844;2023-04-27T12:51:49;13.10;54.80
54202;DHT22;40108;53.152;5.844;2023-04-27T12:54:17;13.20;55.40
54202;DHT22;40108;53.152;5.844;2023-04-27T12:56:42;13.20;54.40
54202;DHT22;40108;53.152;5.844;2023-04-27T12:59:08;13.50;54.10
54202;DHT22;40108;53.152;5.844;2023-04-27T13:01:34;13.60;55.60
54202;DHT22;40108;53.152;5.844;2023-04-27T13:04:01;13.70;53.50
54202;DHT22;40108;53.152;5.844;2023-04-27T13:06:28;13.80;54.40
54202;DHT22;40108;53.152;5.844;2023-04-27T13:08:55;13.80;52.80
54202;DHT22;40108;53.152;5.844;2023-04-27T13:11:20;13.70;51.00
54202;DHT22;40108;53.152;5.844;2023-04-27T13:13:47;13.70;51.40
54202;DHT22;40108;53.152;5.844;2023-04-27T13:16:13;13.60;50.10
54202;DHT22;40108;53.152;5.844;2023-04-27T13:18:40;13.40;49.90
54202;DHT22;40108;53.152;5.844;2023-04-27T13:21:11;13.30;50.80
54202;DHT22;40108;53.152;5.844;2023-04-27T13:23:37;13.40;52.90
54202;DHT22;40108;53.152;5.844;2023-04-27T13:26:03;13.50;53.00
54202;DHT22;40108;53.152;5.844;2023-04-27T13:28:31;13.60;51.00
54202;DHT22;40108;53.152;5.844;2023-04-27T13:30:57;13.50;48.50
54202;DHT22;40108;53.152;5.844;2023-04-27T13:33:22;13.50;50.20
54202;DHT22;40108;53.152;5.844;2023-04-27T13:35:52;13.50;51.90
54202;DHT22;40108;53.152;5.844;2023-04-27T13:38:18;13.60;52.40
54202;DHT22;40108;53.152;5.844;2023-04-27T13:40:43;13.60;52.00
54202;DHT22;40108;53.152;5.844;2023-04-27T13:43:09;13.70;52.80
54202;DHT22;40108;53.152;5.844;2023-04-27T13:45:35;13.70;51.10
54202;DHT22;40108;53.152;5.844;2023-04-27T13:48:00;13.70;52.20
54202;DHT22;40108;53.152;5.844;2023-04-27T13:50:26;13.70;52.10
54202;DHT22;40108;53.152;5.844;2023-04-27T13:52:52;13.60;52.20
54202;DHT22;40108;53.152;5.844;2023-04-27T13:55:18;13.60;52.00
54202;DHT22;40108;53.152;5.844;2023-04-27T13:57:43;13.60;52.80
54202;DHT22;40108;53.152;5.844;2023-04-27T14:00:09;13.50;51.90
54202;DHT22;40108;53.152;5.844;2023-04-27T14:02:36;13.50;53.00
54202;DHT22;40108;53.152;5.844;2023-04-27T14:05:02;13.40;51.10
54202;DHT22;40108;53.152;5.844;2023-04-27T14:07:29;13.20;49.30
54202;DHT22;40108;53.152;5.844;2023-04-27T14:09:56;13.10;51.50
54202;DHT22;40108;53.152;5.844;2023-04-27T14:12:22;13.00;51.20
54202;DHT22;40108;53.152;5.844;2023-04-27T14:14:48;13.00;53.10
54202;DHT22;40108;53.152;5.844;2023-04-27T14:17:13;13.00;53.00
54202;DHT22;40108;53.152;5.844;2023-04-27T14:19:39;13.00;53.40
54202;DHT22;40108;53.152;5.844;2023-04-27T14:22:05;13.00;53.60
54202;DHT22;40108;53.152;5.844;2023-04-27T14:24:32;12.90;52.90
54202;DHT22;40108;53.152;5.844;2023-04-27T14:26:58;12.90;53.60
54202;DHT22;40108;53.152;5.844;2023-04-27T14:29:24;13.00;53.70
54202;DHT22;40108;53.152;5.844;2023-04-27T14:31:51;13.00;54.00
54202;DHT22;40108;53.152;5.844;2023-04-27T14:34:16;13.00;53.70
54202;DHT22;40108;53.152;5.844;2023-04-27T14:36:42;12.90;52.90
54202;DHT22;40108;53.152;5.844;2023-04-27T14:39:08;12.90;55.10
54202;DHT22;40108;53.152;5.844;2023-04-27T14:41:35;12.80;54.40
54202;DHT22;40108;53.152;5.844;2023-04-27T14:44:05;12.60;54.80
54202;DHT22;40108;53.152;5.844;2023-04-27T14:46:32;12.50;56.40
54202;DHT22;40108;53.152;5.844;2023-04-27T14:48:58;12.40;56.10
54202;DHT22;40108;53.152;5.844;2023-04-27T14:51:24;12.30;55.80
54202;DHT22;40108;53.152;5.844;2023-04-27T14:53:50;12.30;56.90
54202;DHT22;40108;53.152;5.844;2023-04-27T14:56:15;12.30;56.70
54202;DHT22;40108;53.152;5.844;2023-04-27T14:58:41;12.10;56.50
54202;DHT22;40108;53.152;5.844;2023-04-27T15:01:07;12.10;56.60
54202;DHT22;40108;53.152;5.844;2023-04-27T15:03:32;12.20;57.90
54202;DHT22;40108;53.152;5.844;2023-04-27T15:05:59;12.20;56.80
54202;DHT22;40108;53.152;5.844;2023-04-27T15:08:25;12.20;58.30
54202;DHT22;40108;53.152;5.844;2023-04-27T15:10:51;12.30;57.50
54202;DHT22;40108;53.152;5.844;2023-04-27T15:13:26;12.30;56.30
54202;DHT22;40108;53.152;5.844;2023-04-27T15:15:56;12.20;55.80
54202;DHT22;40108;53.152;5.844;2023-04-27T15:18:23;12.20;56.20
54202;DHT22;40108;53.152;5.844;2023-04-27T15:20:55;12.20;57.10
54202;DHT22;40108;53.152;5.844;2023-04-27T15:23:22;12.10;56.30
54202;DHT22;40108;53.152;5.844;2023-04-27T15:25:49;12.10;57.70
54202;DHT22;40108;53.152;5.844;2023-04-27T15:28:15;12.10;56.40
54202;DHT22;40108;53.152;5.844;2023-04-27T15:30:42;12.10;57.20
54202;DHT22;40108;53.152;5.844;2023-04-27T15:33:08;12.10;57.80
54202;DHT22;40108;53.152;5.844;2023-04-27T15:35:35;12.10;59.50
54202;DHT22;40108;53.152;5.844;2023-04-27T15:38:03;12.20;60.00
54202;DHT22;40108;53.152;5.844;2023-04-27T15:40:29;12.20;58.60
54202;DHT22;40108;53.152;5.844;2023-04-27T15:42:55;12.10;57.70
54202;DHT22;40108;53.152;5.844;2023-04-27T15:45:21;12.10;59.30